[audio] Torino ATIS

Moderatori: ardix, renato

Rispondi
ardix
Forum Admin
Messaggi: 1449
Iscritto il: domenica 2 maggio 2004, 23:01
Località: LILE

[audio] Torino ATIS

Messaggio da ardix » lunedì 21 luglio 2008, 9:08

Questa mattina è ventoso e riesco a ricevere più del solito. :D

Ecco il metar al tempo della registrazione

LIMF 210650Z 30003KT CAVOK 19/14 Q1012

http://ardix89.altervista.org/liveatc/limf_atis.rar
Diego Ardissone
P3D v3.4 | FSX:SE

Rispondi